sensor_id;sensor_type;location;lat;lon;timestamp;temperature;humidity
648;DHT22;75315;49.006;9.060;2024-02-15T00:01:25;10.10;1.00
648;DHT22;75315;49.006;9.060;2024-02-15T00:03:53;10.00;99.90
648;DHT22;75315;49.006;9.060;2024-02-15T00:06:21;10.10;44.30
648;DHT22;75315;49.006;9.060;2024-02-15T00:08:49;10.30;99.90
648;DHT22;75315;49.006;9.060;2024-02-15T00:11:19;10.40;1.00
648;DHT22;75315;49.006;9.060;2024-02-15T00:13:46;10.40;1.00
648;DHT22;75315;49.006;9.060;2024-02-15T00:16:14;10.50;99.90
648;DHT22;75315;49.006;9.060;2024-02-15T00:18:44;10.50;24.50
648;DHT22;75315;49.006;9.060;2024-02-15T00:21:12;10.50;99.90
648;DHT22;75315;49.006;9.060;2024-02-15T00:23:41;10.30;99.90
648;DHT22;75315;49.006;9.060;2024-02-15T00:26:09;10.30;1.00
648;DHT22;75315;49.006;9.060;2024-02-15T00:28:41;10.20;99.90
648;DHT22;75315;49.006;9.060;2024-02-15T00:31:09;10.20;99.90
648;DHT22;75315;49.006;9.060;2024-02-15T00:33:37;10.20;61.50
648;DHT22;75315;49.006;9.060;2024-02-15T00:36:05;10.10;1.00
648;DHT22;75315;49.006;9.060;2024-02-15T00:38:33;10.00;99.90
648;DHT22;75315;49.006;9.060;2024-02-15T00:41:01;9.90;99.90
648;DHT22;75315;49.006;9.060;2024-02-15T00:43:28;9.90;99.90
648;DHT22;75315;49.006;9.060;2024-02-15T00:45:56;9.90;45.60
648;DHT22;75315;49.006;9.060;2024-02-15T00:48:24;9.90;99.90
648;DHT22;75315;49.006;9.060;2024-02-15T00:50:56;9.90;99.90
648;DHT22;75315;49.006;9.060;2024-02-15T00:53:24;9.80;99.90
648;DHT22;75315;49.006;9.060;2024-02-15T00:55:51;9.70;1.00
648;DHT22;75315;49.006;9.060;2024-02-15T00:58:19;9.70;99.90
648;DHT22;75315;49.006;9.060;2024-02-15T01:00:46;9.70;99.90
648;DHT22;75315;49.006;9.060;2024-02-15T01:03:14;9.60;99.90
648;DHT22;75315;49.006;9.060;2024-02-15T01:05:42;9.50;19.90
648;DHT22;75315;49.006;9.060;2024-02-15T01:08:09;9.30;1.00
648;DHT22;75315;49.006;9.060;2024-02-15T01:10:37;9.20;1.00
648;DHT22;75315;49.006;9.060;2024-02-15T01:13:05;9.00;35.80
648;DHT22;75315;49.006;9.060;2024-02-15T01:15:32;9.00;1.00
648;DHT22;75315;49.006;9.060;2024-02-15T01:18:00;8.80;38.00
648;DHT22;75315;49.006;9.060;2024-02-15T01:20:27;8.70;12.60
648;DHT22;75315;49.006;9.060;2024-02-15T01:22:54;8.80;70.30
648;DHT22;75315;49.006;9.060;2024-02-15T01:25:22;8.80;99.90
648;DHT22;75315;49.006;9.060;2024-02-15T01:27:49;8.70;1.00
648;DHT22;75315;49.006;9.060;2024-02-15T01:30:17;9.00;1.00
648;DHT22;75315;49.006;9.060;2024-02-15T01:32:44;9.10;1.00
648;DHT22;75315;49.006;9.060;2024-02-15T01:35:12;9.30;1.00
648;DHT22;75315;49.006;9.060;2024-02-15T01:37:39;9.40;1.00
648;DHT22;75315;49.006;9.060;2024-02-15T01:40:07;9.40;1.00
648;DHT22;75315;49.006;9.060;2024-02-15T01:42:34;9.50;1.00
648;DHT22;75315;49.006;9.060;2024-02-15T01:45:03;9.40;99.90
648;DHT22;75315;49.006;9.060;2024-02-15T01:47:31;9.10;99.90
648;DHT22;75315;49.006;9.060;2024-02-15T01:49:59;9.30;1.00
648;DHT22;75315;49.006;9.060;2024-02-15T01:52:27;9.10;1.00
648;DHT22;75315;49.006;9.060;2024-02-15T01:54:55;9.30;99.90
648;DHT22;75315;49.006;9.060;2024-02-15T02:00:12;9.30;1.00
648;DHT22;75315;49.006;9.060;2024-02-15T02:02:42;9.30;99.90
648;DHT22;75315;49.006;9.060;2024-02-15T02:05:11;9.20;99.90
648;DHT22;75315;49.006;9.060;2024-02-15T02:07:39;9.00;99.90
648;DHT22;75315;49.006;9.060;2024-02-15T02:10:07;9.10;1.00
648;DHT22;75315;49.006;9.060;2024-02-15T02:12:40;8.90;46.50
648;DHT22;75315;49.006;9.060;2024-02-15T02:15:09;8.80;99.90
648;DHT22;75315;49.006;9.060;2024-02-15T02:17:39;8.70;63.20
648;DHT22;75315;49.006;9.060;2024-02-15T02:20:11;8.80;1.00
648;DHT22;75315;49.006;9.060;2024-02-15T02:22:46;8.70;99.90
648;DHT22;75315;49.006;9.060;2024-02-15T02:25:17;8.50;1.00
648;DHT22;75315;49.006;9.060;2024-02-15T02:27:47;8.50;70.90
648;DHT22;75315;49.006;9.060;2024-02-15T02:30:16;8.50;99.90
648;DHT22;75315;49.006;9.060;2024-02-15T02:32:48;8.60;99.90
648;DHT22;75315;49.006;9.060;2024-02-15T02:35:17;8.80;99.90
648;DHT22;75315;49.006;9.060;2024-02-15T02:37:48;9.00;99.90
648;DHT22;75315;49.006;9.060;2024-02-15T02:40:20;9.10;99.90
648;DHT22;75315;49.006;9.060;2024-02-15T02:42:54;9.20;99.90
648;DHT22;75315;49.006;9.060;2024-02-15T02:45:27;9.10;1.00
648;DHT22;75315;49.006;9.060;2024-02-15T02:47:58;8.90;93.10
648;DHT22;75315;49.006;9.060;2024-02-15T02:50:27;8.90;99.90
648;DHT22;75315;49.006;9.060;2024-02-15T02:52:55;8.90;99.90
648;DHT22;75315;49.006;9.060;2024-02-15T02:55:24;9.00;99.90
648;DHT22;75315;49.006;9.060;2024-02-15T02:57:55;9.00;99.90
648;DHT22;75315;49.006;9.060;2024-02-15T03:00:24;9.10;99.90
648;DHT22;75315;49.006;9.060;2024-02-15T03:02:53;9.10;99.90
648;DHT22;75315;49.006;9.060;2024-02-15T03:05:26;9.20;99.90
648;DHT22;75315;49.006;9.060;2024-02-15T03:07:54;9.40;77.20
648;DHT22;75315;49.006;9.060;2024-02-15T03:10:23;9.50;1.00
648;DHT22;75315;49.006;9.060;2024-02-15T03:12:52;9.40;1.00
648;DHT22;75315;49.006;9.060;2024-02-15T03:15:20;9.30;1.00
648;DHT22;75315;49.006;9.060;2024-02-15T03:17:50;9.20;66.70
648;DHT22;75315;49.006;9.060;2024-02-15T03:20:19;9.30;99.90
648;DHT22;75315;49.006;9.060;2024-02-15T03:22:56;9.20;99.90
648;DHT22;75315;49.006;9.060;2024-02-15T03:25:27;9.30;99.90
648;DHT22;75315;49.006;9.060;2024-02-15T03:27:58;9.40;1.00
648;DHT22;75315;49.006;9.060;2024-02-15T03:30:27;9.50;99.90
648;DHT22;75315;49.006;9.060;2024-02-15T03:32:58;9.70;99.90
648;DHT22;75315;49.006;9.060;2024-02-15T03:35:27;9.60;1.00
648;DHT22;75315;49.006;9.060;2024-02-15T03:37:59;9.80;99.90
648;DHT22;75315;49.006;9.060;2024-02-15T03:40:29;9.70;99.90
648;DHT22;75315;49.006;9.060;2024-02-15T03:42:58;9.50;1.00
648;DHT22;75315;49.006;9.060;2024-02-15T03:45:27;9.40;1.00
648;DHT22;75315;49.006;9.060;2024-02-15T03:47:55;9.50;99.90
648;DHT22;75315;49.006;9.060;2024-02-15T03:50:24;9.40;1.00
648;DHT22;75315;49.006;9.060;2024-02-15T03:52:52;9.50;1.00
648;DHT22;75315;49.006;9.060;2024-02-15T03:55:20;9.40;1.00
648;DHT22;75315;49.006;9.060;2024-02-15T03:57:50;9.50;1.00
648;DHT22;75315;49.006;9.060;2024-02-15T04:00:19;9.40;1.00
648;DHT22;75315;49.006;9.060;2024-02-15T04:02:50;9.50;99.90
648;DHT22;75315;49.006;9.060;2024-02-15T04:05:19;9.50;43.40
648;DHT22;75315;49.006;9.060;2024-02-15T04:07:49;9.40;99.90
648;DHT22;75315;49.006;9.060;2024-02-15T04:10:18;9.40;99.90
648;DHT22;75315;49.006;9.060;2024-02-15T04:12:46;9.40;99.90
648;DHT22;75315;49.006;9.060;2024-02-15T04:15:15;9.30;99.90
648;DHT22;75315;49.006;9.060;2024-02-15T04:17:45;9.50;99.90
648;DHT22;75315;49.006;9.060;2024-02-15T04:20:14;9.40;99.90
648;DHT22;75315;49.006;9.060;2024-02-15T04:22:45;9.40;99.90
648;DHT22;75315;49.006;9.060;2024-02-15T04:25:15;9.50;99.90
648;DHT22;75315;49.006;9.060;2024-02-15T04:27:48;9.50;99.90
648;DHT22;75315;49.006;9.060;2024-02-15T04:30:17;9.60;25.30
648;DHT22;75315;49.006;9.060;2024-02-15T04:32:47;9.60;1.00
648;DHT22;75315;49.006;9.060;2024-02-15T04:35:18;9.50;1.00
648;DHT22;75315;49.006;9.060;2024-02-15T04:37:48;9.50;1.00
648;DHT22;75315;49.006;9.060;2024-02-15T04:40:17;9.50;99.90
648;DHT22;75315;49.006;9.060;2024-02-15T04:42:46;9.60;99.90
648;DHT22;75315;49.006;9.060;2024-02-15T04:45:15;9.70;99.90
648;DHT22;75315;49.006;9.060;2024-02-15T04:47:44;9.70;97.80
648;DHT22;75315;49.006;9.060;2024-02-15T04:50:15;9.60;99.90
648;DHT22;75315;49.006;9.060;2024-02-15T04:52:46;9.60;1.00
648;DHT22;75315;49.006;9.060;2024-02-15T04:55:16;9.60;1.00
648;DHT22;75315;49.006;9.060;2024-02-15T04:57:47;9.50;99.90
648;DHT22;75315;49.006;9.060;2024-02-15T05:00:17;9.60;99.90
648;DHT22;75315;49.006;9.060;2024-02-15T05:02:49;9.60;99.90
648;DHT22;75315;49.006;9.060;2024-02-15T05:05:18;9.60;1.00
648;DHT22;75315;49.006;9.060;2024-02-15T05:07:47;9.50;99.90
648;DHT22;75315;49.006;9.060;2024-02-15T05:10:17;9.50;1.00
648;DHT22;75315;49.006;9.060;2024-02-15T05:12:45;9.50;26.30
648;DHT22;75315;49.006;9.060;2024-02-15T05:15:16;9.50;1.00
648;DHT22;75315;49.006;9.060;2024-02-15T05:17:46;9.40;99.90
648;DHT22;75315;49.006;9.060;2024-02-15T05:20:16;9.30;1.00
648;DHT22;75315;49.006;9.060;2024-02-15T05:22:45;9.40;1.00
648;DHT22;75315;49.006;9.060;2024-02-15T05:25:21;9.40;1.00
648;DHT22;75315;49.006;9.060;2024-02-15T05:27:54;9.50;99.90
648;DHT22;75315;49.006;9.060;2024-02-15T05:30:25;9.50;47.50
648;DHT22;75315;49.006;9.060;2024-02-15T05:32:54;9.50;99.90
648;DHT22;75315;49.006;9.060;2024-02-15T05:35:25;9.70;1.00
648;DHT22;75315;49.006;9.060;2024-02-15T05:37:55;9.70;41.30
648;DHT22;75315;49.006;9.060;2024-02-15T05:40:24;9.60;1.00
648;DHT22;75315;49.006;9.060;2024-02-15T05:42:55;9.60;1.00
648;DHT22;75315;49.006;9.060;2024-02-15T05:47:53;9.70;99.90
648;DHT22;75315;49.006;9.060;2024-02-15T05:50:23;9.60;1.00
648;DHT22;75315;49.006;9.060;2024-02-15T05:52:52;9.50;99.90
648;DHT22;75315;49.006;9.060;2024-02-15T05:55:23;9.50;42.70
648;DHT22;75315;49.006;9.060;2024-02-15T05:57:54;9.50;65.80
648;DHT22;75315;49.006;9.060;2024-02-15T06:00:22;9.40;1.00
648;DHT22;75315;49.006;9.060;2024-02-15T06:02:51;9.40;99.90
648;DHT22;75315;49.006;9.060;2024-02-15T06:05:20;9.50;99.90
648;DHT22;75315;49.006;9.060;2024-02-15T06:07:47;9.60;1.00
648;DHT22;75315;49.006;9.060;2024-02-15T06:10:17;9.60;99.90
648;DHT22;75315;49.006;9.060;2024-02-15T06:12:46;9.50;1.00
648;DHT22;75315;49.006;9.060;2024-02-15T06:15:14;9.50;99.90
648;DHT22;75315;49.006;9.060;2024-02-15T06:17:46;9.60;99.90
648;DHT22;75315;49.006;9.060;2024-02-15T06:20:16;9.50;99.90
648;DHT22;75315;49.006;9.060;2024-02-15T06:22:47;9.40;99.90
648;DHT22;75315;49.006;9.060;2024-02-15T06:25:15;9.40;4.30
648;DHT22;75315;49.006;9.060;2024-02-15T06:27:51;9.30;99.90
648;DHT22;75315;49.006;9.060;2024-02-15T06:30:26;9.30;1.00
648;DHT22;75315;49.006;9.060;2024-02-15T06:33:12;9.30;99.90
648;DHT22;75315;49.006;9.060;2024-02-15T06:36:04;9.30;93.00
648;DHT22;75315;49.006;9.060;2024-02-15T06:38:51;9.20;99.90
648;DHT22;75315;49.006;9.060;2024-02-15T06:41:37;9.20;99.90
648;DHT22;75315;49.006;9.060;2024-02-15T06:44:06;9.20;99.90
648;DHT22;75315;49.006;9.060;2024-02-15T06:46:35;9.20;99.90
648;DHT22;75315;49.006;9.060;2024-02-15T06:49:04;9.20;99.90
648;DHT22;75315;49.006;9.060;2024-02-15T06:51:36;9.30;99.90
648;DHT22;75315;49.006;9.060;2024-02-15T06:54:04;9.40;1.00
648;DHT22;75315;49.006;9.060;2024-02-15T06:56:38;9.40;99.90
648;DHT22;75315;49.006;9.060;2024-02-15T06:59:09;9.40;99.90
648;DHT22;75315;49.006;9.060;2024-02-15T07:01:38;9.40;99.90
648;DHT22;75315;49.006;9.060;2024-02-15T07:04:10;9.40;1.00
648;DHT22;75315;49.006;9.060;2024-02-15T07:06:43;9.40;1.00
648;DHT22;75315;49.006;9.060;2024-02-15T07:09:14;9.50;99.90
648;DHT22;75315;49.006;9.060;2024-02-15T07:11:51;9.50;99.90
648;DHT22;75315;49.006;9.060;2024-02-15T07:14:20;9.50;99.90
648;DHT22;75315;49.006;9.060;2024-02-15T07:16:49;9.60;99.90
648;DHT22;75315;49.006;9.060;2024-02-15T07:19:23;9.60;1.00
648;DHT22;75315;49.006;9.060;2024-02-15T07:21:52;9.60;99.90
648;DHT22;75315;49.006;9.060;2024-02-15T07:24:21;9.70;1.00
648;DHT22;75315;49.006;9.060;2024-02-15T07:26:49;9.70;99.90
648;DHT22;75315;49.006;9.060;2024-02-15T07:29:24;9.80;1.00
648;DHT22;75315;49.006;9.060;2024-02-15T07:31:53;9.90;96.80
648;DHT22;75315;49.006;9.060;2024-02-15T07:34:24;9.90;99.90
648;DHT22;75315;49.006;9.060;2024-02-15T07:36:54;10.00;99.90
648;DHT22;75315;49.006;9.060;2024-02-15T07:39:24;9.90;34.70
648;DHT22;75315;49.006;9.060;2024-02-15T07:41:56;10.00;1.00
648;DHT22;75315;49.006;9.060;2024-02-15T07:44:28;10.10;17.70
648;DHT22;75315;49.006;9.060;2024-02-15T07:46:59;10.40;1.00
648;DHT22;75315;49.006;9.060;2024-02-15T07:49:32;10.50;1.00
648;DHT22;75315;49.006;9.060;2024-02-15T07:52:02;11.00;1.00
648;DHT22;75315;49.006;9.060;2024-02-15T07:54:32;11.10;99.90
648;DHT22;75315;49.006;9.060;2024-02-15T07:57:01;11.20;99.90
648;DHT22;75315;49.006;9.060;2024-02-15T07:59:32;11.50;1.00
648;DHT22;75315;49.006;9.060;2024-02-15T08:02:00;11.40;1.00
648;DHT22;75315;49.006;9.060;2024-02-15T08:04:27;11.60;1.00
648;DHT22;75315;49.006;9.060;2024-02-15T08:06:56;11.70;99.90
648;DHT22;75315;49.006;9.060;2024-02-15T08:09:23;11.90;99.90
648;DHT22;75315;49.006;9.060;2024-02-15T08:11:51;11.80;99.90
648;DHT22;75315;49.006;9.060;2024-02-15T08:14:19;11.80;99.90
648;DHT22;75315;49.006;9.060;2024-02-15T08:16:48;11.70;99.90
648;DHT22;75315;49.006;9.060;2024-02-15T08:19:15;11.70;99.90
648;DHT22;75315;49.006;9.060;2024-02-15T08:21:42;11.50;99.90
648;DHT22;75315;49.006;9.060;2024-02-15T08:24:13;11.60;99.90
648;DHT22;75315;49.006;9.060;2024-02-15T08:26:41;11.60;99.90
648;DHT22;75315;49.006;9.060;2024-02-15T08:29:11;11.60;99.90
648;DHT22;75315;49.006;9.060;2024-02-15T08:31:39;11.60;99.90
648;DHT22;75315;49.006;9.060;2024-02-15T08:34:06;11.70;99.90
648;DHT22;75315;49.006;9.060;2024-02-15T08:36:37;11.80;99.90
648;DHT22;75315;49.006;9.060;2024-02-15T08:39:07;11.90;99.90
648;DHT22;75315;49.006;9.060;2024-02-15T08:41:39;11.80;99.90
648;DHT22;75315;49.006;9.060;2024-02-15T08:44:06;11.90;99.90
648;DHT22;75315;49.006;9.060;2024-02-15T08:46:39;12.00;99.90
648;DHT22;75315;49.006;9.060;2024-02-15T08:49:06;12.00;99.90
648;DHT22;75315;49.006;9.060;2024-02-15T08:51:34;12.10;99.90
648;DHT22;75315;49.006;9.060;2024-02-15T08:54:01;12.20;99.90
648;DHT22;75315;49.006;9.060;2024-02-15T08:56:28;12.30;99.90
648;DHT22;75315;49.006;9.060;2024-02-15T08:58:56;12.30;99.90
648;DHT22;75315;49.006;9.060;2024-02-15T09:01:28;12.50;99.90
648;DHT22;75315;49.006;9.060;2024-02-15T09:03:57;12.60;99.90
648;DHT22;75315;49.006;9.060;2024-02-15T09:06:24;12.70;99.90
648;DHT22;75315;49.006;9.060;2024-02-15T09:08:52;12.80;99.90
648;DHT22;75315;49.006;9.060;2024-02-15T09:11:19;12.80;99.90
648;DHT22;75315;49.006;9.060;2024-02-15T09:13:46;12.60;90.20
648;DHT22;75315;49.006;9.060;2024-02-15T09:16:16;12.60;62.80
648;DHT22;75315;49.006;9.060;2024-02-15T09:18:44;12.60;61.00
648;DHT22;75315;49.006;9.060;2024-02-15T09:21:13;13.00;77.20
648;DHT22;75315;49.006;9.060;2024-02-15T09:23:41;13.10;48.80
648;DHT22;75315;49.006;9.060;2024-02-15T09:26:09;13.10;30.90
648;DHT22;75315;49.006;9.060;2024-02-15T09:28:37;13.60;63.40
648;DHT22;75315;49.006;9.060;2024-02-15T09:31:06;14.10;16.30
648;DHT22;75315;49.006;9.060;2024-02-15T09:33:33;14.10;6.90
648;DHT22;75315;49.006;9.060;2024-02-15T09:36:01;14.00;1.00
648;DHT22;75315;49.006;9.060;2024-02-15T09:38:29;13.80;1.00
648;DHT22;75315;49.006;9.060;2024-02-15T09:40:56;13.90;1.00
648;DHT22;75315;49.006;9.060;2024-02-15T09:43:24;14.10;1.00
648;DHT22;75315;49.006;9.060;2024-02-15T09:45:53;14.20;1.00
648;DHT22;75315;49.006;9.060;2024-02-15T09:48:25;14.30;1.00
648;DHT22;75315;49.006;9.060;2024-02-15T09:50:53;13.90;1.00
648;DHT22;75315;49.006;9.060;2024-02-15T09:53:22;14.10;1.00
648;DHT22;75315;49.006;9.060;2024-02-15T09:55:53;14.20;1.00
648;DHT22;75315;49.006;9.060;2024-02-15T09:58:31;14.50;1.00
648;DHT22;75315;49.006;9.060;2024-02-15T10:01:04;14.50;1.00
648;DHT22;75315;49.006;9.060;2024-02-15T10:03:38;14.20;1.00
648;DHT22;75315;49.006;9.060;2024-02-15T10:06:08;14.40;1.00
648;DHT22;75315;49.006;9.060;2024-02-15T10:08:36;14.40;1.00
648;DHT22;75315;49.006;9.060;2024-02-15T10:11:06;15.20;1.00
648;DHT22;75315;49.006;9.060;2024-02-15T10:13:35;15.30;1.00
648;DHT22;75315;49.006;9.060;2024-02-15T10:16:19;15.30;1.00
648;DHT22;75315;49.006;9.060;2024-02-15T10:18:52;15.60;1.00
648;DHT22;75315;49.006;9.060;2024-02-15T10:21:27;15.80;1.00
648;DHT22;75315;49.006;9.060;2024-02-15T10:24:08;15.70;1.00
648;DHT22;75315;49.006;9.060;2024-02-15T10:26:37;15.40;1.00
648;DHT22;75315;49.006;9.060;2024-02-15T10:29:08;15.40;1.00
648;DHT22;75315;49.006;9.060;2024-02-15T10:31:38;15.40;1.00
648;DHT22;75315;49.006;9.060;2024-02-15T10:34:08;15.60;1.00
648;DHT22;75315;49.006;9.060;2024-02-15T10:36:36;15.50;1.00
648;DHT22;75315;49.006;9.060;2024-02-15T10:39:14;15.60;1.00
648;DHT22;75315;49.006;9.060;2024-02-15T10:41:53;15.90;1.00
648;DHT22;75315;49.006;9.060;2024-02-15T10:44:23;16.10;1.00
648;DHT22;75315;49.006;9.060;2024-02-15T10:46:52;16.20;1.00
648;DHT22;75315;49.006;9.060;2024-02-15T10:49:24;16.00;1.00
648;DHT22;75315;49.006;9.060;2024-02-15T10:51:56;16.10;1.00
648;DHT22;75315;49.006;9.060;2024-02-15T10:57:06;16.20;1.00
648;DHT22;75315;49.006;9.060;2024-02-15T10:59:37;15.80;1.00
648;DHT22;75315;49.006;9.060;2024-02-15T11:02:23;16.00;1.00
648;DHT22;75315;49.006;9.060;2024-02-15T11:04:54;16.10;1.00
648;DHT22;75315;49.006;9.060;2024-02-15T11:07:25;16.20;1.00
648;DHT22;75315;49.006;9.060;2024-02-15T11:09:59;16.50;1.00
648;DHT22;75315;49.006;9.060;2024-02-15T11:12:29;16.50;1.00
648;DHT22;75315;49.006;9.060;2024-02-15T11:14:58;16.50;1.00
648;DHT22;75315;49.006;9.060;2024-02-15T11:20:09;16.30;1.00
648;DHT22;75315;49.006;9.060;2024-02-15T11:22:38;16.40;1.00
648;DHT22;75315;49.006;9.060;2024-02-15T11:25:06;16.50;1.00
648;DHT22;75315;49.006;9.060;2024-02-15T11:27:39;16.80;1.00
648;DHT22;75315;49.006;9.060;2024-02-15T11:30:12;16.70;1.00
648;DHT22;75315;49.006;9.060;2024-02-15T11:32:57;16.60;1.00
648;DHT22;75315;49.006;9.060;2024-02-15T11:35:26;16.90;1.00
648;DHT22;75315;49.006;9.060;2024-02-15T11:37:57;16.90;1.00
648;DHT22;75315;49.006;9.060;2024-02-15T11:46:18;16.40;1.00
648;DHT22;75315;49.006;9.060;2024-02-15T11:48:47;16.50;1.00
648;DHT22;75315;49.006;9.060;2024-02-15T11:54:09;16.60;1.00
648;DHT22;75315;49.006;9.060;2024-02-15T11:56:48;16.60;1.00
648;DHT22;75315;49.006;9.060;2024-02-15T11:59:19;16.50;1.00
648;DHT22;75315;49.006;9.060;2024-02-15T12:01:56;16.70;1.00
648;DHT22;75315;49.006;9.060;2024-02-15T12:04:43;16.50;1.00
648;DHT22;75315;49.006;9.060;2024-02-15T12:07:29;16.30;1.00
648;DHT22;75315;49.006;9.060;2024-02-15T12:10:20;16.80;1.00
648;DHT22;75315;49.006;9.060;2024-02-15T12:13:06;16.80;1.00
648;DHT22;75315;49.006;9.060;2024-02-15T12:15:58;16.70;1.00
648;DHT22;75315;49.006;9.060;2024-02-15T12:18:45;16.50;1.00
648;DHT22;75315;49.006;9.060;2024-02-15T12:21:25;16.40;1.00
648;DHT22;75315;49.006;9.060;2024-02-15T12:23:54;16.50;1.00
648;DHT22;75315;49.006;9.060;2024-02-15T12:26:21;16.50;1.00
648;DHT22;75315;49.006;9.060;2024-02-15T12:28:53;16.40;1.00
648;DHT22;75315;49.006;9.060;2024-02-15T12:31:25;16.40;1.00
648;DHT22;75315;49.006;9.060;2024-02-15T12:34:05;16.40;1.00
648;DHT22;75315;49.006;9.060;2024-02-15T12:36:36;16.40;1.00
648;DHT22;75315;49.006;9.060;2024-02-15T12:39:06;16.50;1.00
648;DHT22;75315;49.006;9.060;2024-02-15T12:41:48;16.50;1.00
648;DHT22;75315;49.006;9.060;2024-02-15T12:44:19;16.50;1.00
648;DHT22;75315;49.006;9.060;2024-02-15T12:46:56;16.60;1.00
648;DHT22;75315;49.006;9.060;2024-02-15T12:51:52;16.70;1.00
648;DHT22;75315;49.006;9.060;2024-02-15T12:54:20;16.70;1.00
648;DHT22;75315;49.006;9.060;2024-02-15T12:56:48;16.90;1.00
648;DHT22;75315;49.006;9.060;2024-02-15T12:59:21;16.70;1.00
648;DHT22;75315;49.006;9.060;2024-02-15T13:01:48;16.70;1.00
648;DHT22;75315;49.006;9.060;2024-02-15T13:04:24;16.80;1.00
648;DHT22;75315;49.006;9.060;2024-02-15T13:06:52;16.70;1.00
648;DHT22;75315;49.006;9.060;2024-02-15T13:09:20;16.60;1.00
648;DHT22;75315;49.006;9.060;2024-02-15T13:11:49;16.60;1.00
648;DHT22;75315;49.006;9.060;2024-02-15T13:14:17;16.60;1.00
648;DHT22;75315;49.006;9.060;2024-02-15T13:16:47;16.60;1.00
648;DHT22;75315;49.006;9.060;2024-02-15T13:19:15;16.50;1.00
648;DHT22;75315;49.006;9.060;2024-02-15T13:21:43;16.60;1.00
648;DHT22;75315;49.006;9.060;2024-02-15T13:24:10;16.50;1.00
648;DHT22;75315;49.006;9.060;2024-02-15T13:26:38;16.50;1.00
648;DHT22;75315;49.006;9.060;2024-02-15T13:29:07;16.50;1.00
648;DHT22;75315;49.006;9.060;2024-02-15T13:31:34;16.60;1.00
648;DHT22;75315;49.006;9.060;2024-02-15T13:34:02;16.60;1.00
648;DHT22;75315;49.006;9.060;2024-02-15T13:36:30;16.70;1.00
648;DHT22;75315;49.006;9.060;2024-02-15T13:38:58;16.70;1.00
648;DHT22;75315;49.006;9.060;2024-02-15T13:41:26;16.70;1.00
648;DHT22;75315;49.006;9.060;2024-02-15T13:43:53;16.70;1.00
648;DHT22;75315;49.006;9.060;2024-02-15T13:46:21;16.80;1.00
648;DHT22;75315;49.006;9.060;2024-02-15T13:48:49;16.90;1.00
648;DHT22;75315;49.006;9.060;2024-02-15T13:51:16;16.90;1.00
648;DHT22;75315;49.006;9.060;2024-02-15T13:53:44;17.00;1.00
648;DHT22;75315;49.006;9.060;2024-02-15T13:56:11;17.00;1.00
648;DHT22;75315;49.006;9.060;2024-02-15T13:58:39;17.10;1.00
648;DHT22;75315;49.006;9.060;2024-02-15T14:01:06;17.10;1.00
648;DHT22;75315;49.006;9.060;2024-02-15T14:03:34;16.90;1.00
648;DHT22;75315;49.006;9.060;2024-02-15T14:06:01;16.70;1.00
648;DHT22;75315;49.006;9.060;2024-02-15T14:08:29;16.70;1.00
648;DHT22;75315;49.006;9.060;2024-02-15T14:10:57;16.80;1.00
648;DHT22;75315;49.006;9.060;2024-02-15T14:13:25;16.70;1.00
648;DHT22;75315;49.006;9.060;2024-02-15T14:15:52;16.70;1.00
648;DHT22;75315;49.006;9.060;2024-02-15T14:18:22;16.70;1.00
648;DHT22;75315;49.006;9.060;2024-02-15T14:20:51;16.70;1.00
648;DHT22;75315;49.006;9.060;2024-02-15T14:23:18;16.60;1.00
648;DHT22;75315;49.006;9.060;2024-02-15T14:25:46;16.60;1.00
648;DHT22;75315;49.006;9.060;2024-02-15T14:28:13;16.70;1.00
648;DHT22;75315;49.006;9.060;2024-02-15T14:30:43;16.60;1.00
648;DHT22;75315;49.006;9.060;2024-02-15T14:33:29;16.70;1.00
648;DHT22;75315;49.006;9.060;2024-02-15T14:36:02;16.60;1.00
648;DHT22;75315;49.006;9.060;2024-02-15T14:38:31;16.60;1.00
648;DHT22;75315;49.006;9.060;2024-02-15T14:40:59;16.60;1.00
648;DHT22;75315;49.006;9.060;2024-02-15T14:43:29;16.70;1.00
648;DHT22;75315;49.006;9.060;2024-02-15T14:45:59;16.80;1.00
648;DHT22;75315;49.006;9.060;2024-02-15T14:48:32;16.70;1.00
648;DHT22;75315;49.006;9.060;2024-02-15T14:51:01;16.50;1.00
648;DHT22;75315;49.006;9.060;2024-02-15T14:53:29;16.60;1.00
648;DHT22;75315;49.006;9.060;2024-02-15T14:55:57;16.50;1.00
648;DHT22;75315;49.006;9.060;2024-02-15T14:58:25;16.50;1.00
648;DHT22;75315;49.006;9.060;2024-02-15T15:00:52;16.50;1.00
648;DHT22;75315;49.006;9.060;2024-02-15T15:03:30;16.40;1.00
648;DHT22;75315;49.006;9.060;2024-02-15T15:06:00;16.40;1.00
648;DHT22;75315;49.006;9.060;2024-02-15T15:09:06;16.50;1.00
648;DHT22;75315;49.006;9.060;2024-02-15T15:11:52;16.40;1.00
648;DHT22;75315;49.006;9.060;2024-02-15T15:14:39;16.40;1.00
648;DHT22;75315;49.006;9.060;2024-02-15T15:17:09;16.30;1.00
648;DHT22;75315;49.006;9.060;2024-02-15T15:19:39;16.30;1.00
648;DHT22;75315;49.006;9.060;2024-02-15T15:22:06;16.30;1.00
648;DHT22;75315;49.006;9.060;2024-02-15T15:24:34;16.20;1.00
648;DHT22;75315;49.006;9.060;2024-02-15T15:27:02;16.20;1.00
648;DHT22;75315;49.006;9.060;2024-02-15T15:29:32;16.10;1.00
648;DHT22;75315;49.006;9.060;2024-02-15T15:32:02;16.10;1.00
648;DHT22;75315;49.006;9.060;2024-02-15T15:34:30;16.10;1.00
648;DHT22;75315;49.006;9.060;2024-02-15T15:36:57;16.10;1.00
648;DHT22;75315;49.006;9.060;2024-02-15T15:39:24;16.00;1.00
648;DHT22;75315;49.006;9.060;2024-02-15T15:41:52;15.90;1.00
648;DHT22;75315;49.006;9.060;2024-02-15T15:44:23;15.90;1.00
648;DHT22;75315;49.006;9.060;2024-02-15T15:46:54;15.80;1.00
648;DHT22;75315;49.006;9.060;2024-02-15T15:49:22;15.80;1.00
648;DHT22;75315;49.006;9.060;2024-02-15T15:51:51;15.70;1.00
648;DHT22;75315;49.006;9.060;2024-02-15T15:54:20;15.60;1.00
648;DHT22;75315;49.006;9.060;2024-02-15T15:56:51;15.60;1.00
648;DHT22;75315;49.006;9.060;2024-02-15T15:59:19;15.60;1.00
648;DHT22;75315;49.006;9.060;2024-02-15T16:01:48;15.60;1.00
648;DHT22;75315;49.006;9.060;2024-02-15T16:04:15;15.50;1.00
648;DHT22;75315;49.006;9.060;2024-02-15T16:06:43;15.40;1.00
648;DHT22;75315;49.006;9.060;2024-02-15T16:09:11;15.30;1.00
648;DHT22;75315;49.006;9.060;2024-02-15T16:11:41;15.30;1.00
648;DHT22;75315;49.006;9.060;2024-02-15T16:14:10;15.30;1.00
648;DHT22;75315;49.006;9.060;2024-02-15T16:16:38;15.20;1.00
648;DHT22;75315;49.006;9.060;2024-02-15T16:19:06;15.10;1.00
648;DHT22;75315;49.006;9.060;2024-02-15T16:21:34;15.00;1.00
648;DHT22;75315;49.006;9.060;2024-02-15T16:24:01;15.00;1.00
648;DHT22;75315;49.006;9.060;2024-02-15T16:26:30;14.90;1.00
648;DHT22;75315;49.006;9.060;2024-02-15T16:28:57;14.70;1.00
648;DHT22;75315;49.006;9.060;2024-02-15T16:31:25;14.50;1.00
648;DHT22;75315;49.006;9.060;2024-02-15T16:33:52;14.50;1.00
648;DHT22;75315;49.006;9.060;2024-02-15T16:36:20;14.50;1.00
648;DHT22;75315;49.006;9.060;2024-02-15T16:38:50;14.40;1.00
648;DHT22;75315;49.006;9.060;2024-02-15T16:41:17;14.30;1.00
648;DHT22;75315;49.006;9.060;2024-02-15T16:43:45;14.10;1.00
648;DHT22;75315;49.006;9.060;2024-02-15T16:46:14;13.90;1.00
648;DHT22;75315;49.006;9.060;2024-02-15T16:48:41;13.70;1.00
648;DHT22;75315;49.006;9.060;2024-02-15T16:51:08;13.60;1.00
648;DHT22;75315;49.006;9.060;2024-02-15T16:53:36;13.40;1.00
648;DHT22;75315;49.006;9.060;2024-02-15T16:56:05;13.40;1.00
648;DHT22;75315;49.006;9.060;2024-02-15T16:58:36;13.40;1.00